Райвио

Карта отелей и гостиниц, располагающихся рядом с аэропортом Райвио :

Райвио Республика Карелия 61° 32' 34.44" N, 29° 42' 50.8212" E
Код аэродрома ИКАО
H373
Код аэродрома RU
Х373
Координаты
N61.54290° E029.71412°
Превышение над уровнем моря
83
Основная полоса
Курс магнитный
Длина основной ВПП
Ширина основной ВПП
Покрытие основной ВПП
Освещение ВПП
Тип: 
Вертодром
Класс аэродрома: 
Принадлежность: 
ФСБ
Статус: 
Действующий
Сайт: 
E-mail аэродрома: 
Страна: 
Россия
Регион: 
Республика Карелия
Город: 
Дополнительная информация: 
Оператор: погранзастава ФСБ России.

Найти трансфер

С помощью этой формы Вы можете найти трансфер из аэропорта Райвио в город, аэропорт или вокзал:

Карта места

Javascript is required to view this map.

Погода в аэропортах:

Авиационная погода в Алматы

Регион: 
Погода METAR: 
UAAA 241500Z VRB01MPS 2100 BR FU NSC 04/01 Q1022 R23L/CLRD65 NOSIG
Время наблюдения
2021-10-24T15:00:00Z
Температура C
4.0
Точка росы
1.0
Направление ветра
0
Скорость ветра (узлы)
2
Метео видимость
1.3
Явления погоды
BR FU
Условия полета
IFR
Аэропорт подробнее: 

Авиационная погода в Якутске

Регион: 
Погода METAR: 
UEEE 241700Z 22002MPS 9999 -SHSN SCT040CB 00/M01 Q1003 R23L/150156 NOSIG RMK QFE743
Время наблюдения
2021-10-24T17:00:00Z
Температура C
0.0
Точка росы
-1.0
Направление ветра
220
Скорость ветра (узлы)
4
Метео видимость
6.21
Явления погоды
-SHSN
Условия полета
VFR
Аэропорт подробнее: 

Авиационная погода в аэропорту Алыкель

Регион: 
Погода METAR: 
UOOO 241700Z 06003MPS 3100 -SN SCT012 M03/M03 Q0987 R01/491048 NOSIG RMK QFE726/0968
Время наблюдения
2021-10-24T17:00:00Z
Температура C
-3.0
Точка росы
-3.0
Направление ветра
60
Скорость ветра (узлы)
6
Метео видимость
1.93
Явления погоды
-SN
Условия полета
IFR
Аэропорт подробнее: 

Авиационная погода в Краснодаре

Регион: 
Погода METAR: 
URKK 241700Z 36005MPS 9999 -SHRA BKN031CB 06/04 Q1024 R05R/290060 TEMPO 2000 TSRA SCT005 BKN020CB RMK QFE765
Время наблюдения
2021-10-24T17:00:00Z
Температура C
6.0
Точка росы
4.0
Направление ветра
360
Скорость ветра (узлы)
10
Метео видимость
6.21
Явления погоды
-SHRA
Условия полета
VFR
Аэропорт подробнее: